This is the latest recevied weather packets stored in our database for station/object DL7MAP-13. If no packets are shown the sender has not sent any weather packets the latest 10 day(s).
| Time | Temp. | Humidity | Pressure | Rain* | Wind** | Luminosity | Snow |
|---|---|---|---|---|---|---|---|
| 1777539487 | 16.67° C | 35% | 1027.6 hPa | - | - | - | - |
| 1777534986 | 12.78° C | 43% | 1027.6 hPa | - | - | - | - |
| 1777534087 | 12.22° C | 45% | 1028.2 hPa | - | - | - | - |
| 1777532286 | 11.11° C | 48% | 1026.9 hPa | - | - | - | - |
| 1777530487 | 11.11° C | 51% | 1027 hPa | - | - | - | - |
| 1777529587 | 10° C | 55% | 1028.1 hPa | - | - | - | - |
| 1777528686 | 9.44° C | 56% | 1027.4 hPa | - | - | - | - |
| 1777527787 | 8.33° C | 62% | 1027.1 hPa | - | - | - | - |
| 1777526887 | 7.22° C | 70% | 1027.6 hPa | - | - | - | - |
| 1777525987 | 6.67° C | 72% | 1027.5 hPa | - | - | - | - |
| 1777525086 | 6.11° C | 75% | 1027.7 hPa | - | - | - | - |
| 1777524187 | 3.89° C | 81% | 1027.6 hPa | - | - | - | - |
| 1777523286 | 2.22° C | 83% | 1027.4 hPa | - | - | - | - |
| 1777522387 | 0° C | 84% | 1027.2 hPa | - | - | - | - |
| 1777521487 | 0° C | 84% | 1027.2 hPa | - | - | - | - |
| 1777520586 | 0° C | 84% | 1027.2 hPa | - | - | - | - |
| 1777519686 | 0.56° C | 83% | 1026.9 hPa | - | - | - | - |
| 1777518786 | 0.56° C | 83% | 1027 hPa | - | - | - | - |
| 1777517889 | 1.11° C | 82% | 1026.8 hPa | - | - | - | - |
| 1777516987 | 1.11° C | 81% | 1026.7 hPa | - | - | - | - |
| 1777516086 | 1.67° C | 80% | 1026.8 hPa | - | - | - | - |
| 1777515186 | 2.22° C | 78% | 1026.7 hPa | - | - | - | - |
| 1777514287 | 3.33° C | 76% | 1026.6 hPa | - | - | - | - |
| 1777513390 | 3.33° C | 76% | 1026.8 hPa | - | - | - | - |
| 1777511587 | 3.33° C | 75% | 1026.7 hPa | - | - | - | - |
* Rain since midnight (hover to see other rain measurements)
** Current wind speed in m/s (hover to see current wind gust speed)